createdAt,value
2019-02-26T00:00:28.565Z,7.94
2019-02-26T00:03:02.146Z,7.96
2019-02-26T00:05:30.715Z,7.96
2019-02-26T00:08:02.680Z,7.92
2019-02-26T00:10:35.891Z,7.85
2019-02-26T00:13:03.597Z,7.88
2019-02-26T00:15:35.582Z,7.86
2019-02-26T00:18:07.459Z,7.84
2019-02-26T00:20:37.218Z,7.83
2019-02-26T00:23:06.779Z,7.84
2019-02-26T00:25:36.292Z,7.76
2019-02-26T00:28:05.868Z,7.74
2019-02-26T00:30:37.770Z,7.73
2019-02-26T00:33:06.636Z,7.54
2019-02-26T00:35:36.178Z,7.56
2019-02-26T00:38:05.748Z,7.58
2019-02-26T00:40:37.165Z,7.59
2019-02-26T00:43:07.408Z,7.57
2019-02-26T00:45:38.992Z,7.58
2019-02-26T00:48:08.110Z,7.58
2019-02-26T00:50:39.662Z,7.58
2019-02-26T00:53:08.802Z,7.56
2019-02-26T00:55:39.677Z,7.54
2019-02-26T00:58:10.770Z,7.50
2019-02-26T01:00:40.365Z,7.37
2019-02-26T01:03:11.407Z,7.32
2019-02-26T01:05:43.103Z,7.28
2019-02-26T01:08:13.452Z,7.23
2019-02-26T01:10:44.122Z,7.23
2019-02-26T01:13:14.656Z,7.23
2019-02-26T01:15:44.151Z,7.21
2019-02-26T01:18:13.645Z,7.18
2019-02-26T01:20:43.138Z,7.13
2019-02-26T01:23:12.638Z,7.10
2019-02-26T01:25:42.609Z,7.06
2019-02-26T01:28:14.094Z,7.12
2019-02-26T01:30:43.307Z,7.09
2019-02-26T01:33:12.800Z,7.07
2019-02-26T01:35:42.288Z,6.99
2019-02-26T01:38:12.640Z,7.04
2019-02-26T01:40:45.656Z,7.10
2019-02-26T01:43:14.169Z,7.14
2019-02-26T01:45:44.411Z,7.15
2019-02-26T01:48:16.726Z,7.18
2019-02-26T01:50:46.052Z,7.22
2019-02-26T01:53:17.493Z,7.21
2019-02-26T01:55:48.377Z,7.30
2019-02-26T01:58:17.933Z,7.30
2019-02-26T02:00:48.391Z,7.31
2019-02-26T02:03:18.664Z,7.33
2019-02-26T02:05:50.341Z,7.38
2019-02-26T02:08:22.609Z,7.34
2019-02-26T02:10:53.646Z,7.34
2019-02-26T02:13:28.346Z,7.38
2019-02-26T02:15:55.076Z,7.42
2019-02-26T02:18:25.901Z,7.39
2019-02-26T02:20:55.745Z,7.36
2019-02-26T02:23:25.806Z,7.35
2019-02-26T02:25:59.784Z,7.33
2019-02-26T02:28:28.612Z,7.29
2019-02-26T02:30:58.810Z,7.26
2019-02-26T02:33:30.051Z,7.20
2019-02-26T02:35:59.511Z,7.10
2019-02-26T02:38:29.007Z,7.01
2019-02-26T02:40:58.495Z,6.84
2019-02-26T02:43:27.992Z,6.82
2019-02-26T02:45:59.044Z,6.81
2019-02-26T02:48:28.691Z,6.85
2019-02-26T02:50:59.603Z,6.89
2019-02-26T02:53:30.224Z,6.90
2019-02-26T02:56:00.557Z,6.84
2019-02-26T02:58:30.057Z,6.84
2019-02-26T03:01:00.315Z,6.79
2019-02-26T03:03:29.832Z,6.79
2019-02-26T03:06:01.783Z,6.79
2019-02-26T03:08:30.564Z,6.77
2019-02-26T03:11:00.044Z,6.77
2019-02-26T03:13:29.541Z,6.74
2019-02-26T03:16:01.446Z,6.57
2019-02-26T03:18:30.223Z,6.42
2019-02-26T03:21:02.071Z,6.37
2019-02-26T03:23:31.976Z,6.46
2019-02-26T03:26:02.090Z,6.48
2019-02-26T03:28:34.818Z,6.49
2019-02-26T03:31:02.816Z,6.52
2019-02-26T03:33:32.300Z,6.43
2019-02-26T03:36:05.445Z,6.43
2019-02-26T03:38:33.004Z,6.47
2019-02-26T03:41:03.696Z,6.37
2019-02-26T03:43:34.183Z,6.39
2019-02-26T03:46:04.572Z,6.33
2019-02-26T03:48:34.047Z,6.29
2019-02-26T03:51:03.529Z,6.25
2019-02-26T03:53:34.271Z,6.23
2019-02-26T03:56:07.805Z,6.25
2019-02-26T03:58:35.617Z,6.23
2019-02-26T04:01:07.497Z,6.18
2019-02-26T04:03:37.587Z,6.18
2019-02-26T04:06:10.049Z,6.11
2019-02-26T04:08:38.816Z,6.01
2019-02-26T04:11:08.306Z,5.98
2019-02-26T04:13:37.786Z,5.97
2019-02-26T04:16:07.283Z,5.92
2019-02-26T04:18:36.762Z,5.86
2019-02-26T04:21:09.469Z,5.81
2019-02-26T04:23:38.934Z,5.83
2019-02-26T04:26:37.084Z,5.86
2019-02-26T04:29:49.443Z,5.86
2019-02-26T04:32:53.352Z,5.74
2019-02-26T04:35:39.479Z,5.68
2019-02-26T04:38:31.931Z,5.59
2019-02-26T04:41:22.048Z,5.38
2019-02-26T04:44:47.690Z,5.48
2019-02-26T04:47:21.949Z,5.51
2019-02-26T04:49:51.234Z,5.51
2019-02-26T04:52:20.722Z,5.52
2019-02-26T04:54:50.284Z,5.55
2019-02-26T04:57:19.766Z,5.53
2019-02-26T04:59:49.287Z,5.52
2019-02-26T05:02:18.786Z,5.56
2019-02-26T05:04:48.343Z,5.57
2019-02-26T05:07:19.414Z,5.65
2019-02-26T05:09:51.114Z,5.63
2019-02-26T05:12:20.162Z,5.62
2019-02-26T05:14:49.654Z,5.64
2019-02-26T05:17:21.872Z,5.60
2019-02-26T05:19:51.806Z,5.60
2019-02-26T05:22:22.676Z,5.64
2019-02-26T05:24:52.915Z,5.56
2019-02-26T05:27:25.027Z,5.52
2019-02-26T05:29:54.906Z,5.53
2019-02-26T05:32:27.174Z,5.50
2019-02-26T05:34:55.606Z,5.60
2019-02-26T05:37:28.544Z,5.61
2019-02-26T05:39:56.303Z,5.64
2019-02-26T05:42:25.799Z,5.62
2019-02-26T05:44:57.412Z,5.65
2019-02-26T05:47:26.713Z,5.60
2019-02-26T05:49:56.268Z,5.62
2019-02-26T05:52:27.226Z,5.61
2019-02-26T05:54:56.957Z,5.57
2019-02-26T05:57:32.355Z,5.50
2019-02-26T05:59:57.641Z,5.53
2019-02-26T06:02:27.149Z,5.57
2019-02-26T06:04:56.658Z,5.51
2019-02-26T06:07:29.777Z,5.50
2019-02-26T06:09:59.235Z,5.52
2019-02-26T06:12:32.383Z,5.47
2019-02-26T06:15:05.090Z,5.36
2019-02-26T06:17:32.172Z,5.35
2019-02-26T06:20:14.221Z,5.34
2019-02-26T06:22:43.736Z,5.35
2019-02-26T06:25:20.657Z,5.38
2019-02-26T06:27:45.508Z,5.42
2019-02-26T06:30:15.173Z,5.45
2019-02-26T06:32:44.905Z,5.30
2019-02-26T06:35:16.547Z,5.33
2019-02-26T06:37:46.651Z,5.35
2019-02-26T06:40:16.234Z,5.36
2019-02-26T06:42:45.741Z,5.37
2019-02-26T06:45:16.533Z,5.43
2019-02-26T06:47:48.562Z,5.45
2019-02-26T06:50:18.937Z,5.40
2019-02-26T06:52:50.760Z,5.36
2019-02-26T06:55:19.861Z,5.40
2019-02-26T06:57:50.862Z,5.42
2019-02-26T07:00:22.307Z,5.33
2019-02-26T07:02:51.792Z,5.26
2019-02-26T07:05:23.881Z,5.21
2019-02-26T07:07:54.465Z,5.27
2019-02-26T07:10:26.305Z,5.33
2019-02-26T07:12:54.908Z,5.39
2019-02-26T07:15:24.393Z,5.44
2019-02-26T07:17:53.891Z,5.50
2019-02-26T07:20:23.427Z,5.50
2019-02-26T07:22:53.100Z,5.63
2019-02-26T07:25:22.592Z,5.67
2019-02-26T07:27:53.627Z,5.73
2019-02-26T07:30:23.308Z,5.79
2019-02-26T07:32:52.845Z,5.87
2019-02-26T07:35:22.334Z,5.90
2019-02-26T07:37:52.295Z,5.99
2019-02-26T07:40:23.026Z,5.94
2019-02-26T07:42:52.542Z,5.96
2019-02-26T07:45:22.951Z,5.99
2019-02-26T07:47:55.926Z,6.06
2019-02-26T07:50:25.069Z,6.09
2019-02-26T07:52:57.131Z,5.98
2019-02-26T07:55:27.478Z,6.03
2019-02-26T07:57:57.210Z,6.11
2019-02-26T08:00:26.776Z,6.14
2019-02-26T08:02:57.789Z,6.27
2019-02-26T08:05:28.898Z,6.26
2019-02-26T08:07:58.467Z,6.32
2019-02-26T08:10:27.952Z,6.40
2019-02-26T08:12:59.212Z,6.42
2019-02-26T08:15:30.384Z,6.45
2019-02-26T08:18:01.288Z,6.55
2019-02-26T08:20:32.939Z,6.65
2019-02-26T08:23:02.298Z,6.83
2019-02-26T08:25:31.873Z,6.95
2019-02-26T08:28:01.452Z,7.08
2019-02-26T08:30:30.968Z,7.20
2019-02-26T08:33:02.673Z,7.23
2019-02-26T08:35:31.659Z,7.30
2019-02-26T08:38:01.174Z,7.41
2019-02-26T08:40:30.670Z,7.56
2019-02-26T08:43:00.164Z,7.69
2019-02-26T08:45:31.038Z,7.77
2019-02-26T08:48:00.800Z,7.84
2019-02-26T08:50:33.079Z,7.98
2019-02-26T08:53:01.447Z,8.00
2019-02-26T08:55:30.954Z,8.13
2019-02-26T08:58:00.472Z,8.26
2019-02-26T09:00:30.945Z,8.39
2019-02-26T09:03:00.457Z,8.47
2019-02-26T09:05:33.989Z,8.58
2019-02-26T09:08:01.172Z,8.73
2019-02-26T09:10:30.763Z,8.84
2019-02-26T09:13:00.282Z,8.89
2019-02-26T09:15:31.282Z,9.01
2019-02-26T09:18:01.030Z,9.12
2019-02-26T09:20:30.604Z,9.26
2019-02-26T09:23:01.458Z,9.49
2019-02-26T09:25:31.569Z,9.71
2019-02-26T09:28:02.328Z,9.85
2019-02-26T09:30:33.911Z,9.97
2019-02-26T09:33:06.363Z,10.16
2019-02-26T09:35:35.404Z,10.30
2019-02-26T09:38:04.932Z,10.41
2019-02-26T09:40:35.068Z,10.47
2019-02-26T09:43:06.111Z,10.61
2019-02-26T09:45:35.883Z,10.76
2019-02-26T09:48:05.412Z,10.87
2019-02-26T09:50:36.730Z,10.95
2019-02-26T09:53:06.134Z,11.04
2019-02-26T09:55:35.660Z,11.18
2019-02-26T09:58:05.171Z,11.18
2019-02-26T10:00:34.684Z,11.26
2019-02-26T10:03:06.168Z,11.39
2019-02-26T10:05:35.483Z,11.45
2019-02-26T10:08:05.423Z,11.55
2019-02-26T10:10:39.113Z,11.66
2019-02-26T10:13:06.145Z,11.74
2019-02-26T10:15:39.311Z,11.94
2019-02-26T10:18:09.395Z,12.05
2019-02-26T10:20:39.038Z,12.14
2019-02-26T10:23:08.539Z,12.29
2019-02-26T10:25:38.926Z,12.39
2019-02-26T10:28:11.076Z,12.41
2019-02-26T10:30:41.701Z,12.50
2019-02-26T10:33:10.996Z,12.58
2019-02-26T10:35:42.765Z,12.61
2019-02-26T10:38:11.916Z,12.69
2019-02-26T10:40:53.554Z,12.79
2019-02-26T10:43:13.593Z,12.84
2019-02-26T10:45:44.786Z,13.02
2019-02-26T10:48:16.790Z,13.16
2019-02-26T10:50:48.872Z,13.30
2019-02-26T10:53:19.802Z,13.40
2019-02-26T10:55:47.965Z,13.49
2019-02-26T10:58:17.473Z,13.60
2019-02-26T11:00:50.594Z,13.66
2019-02-26T11:03:20.287Z,13.74
2019-02-26T11:05:52.164Z,13.87
2019-02-26T11:08:24.713Z,14.03
2019-02-26T11:10:52.573Z,14.10
2019-02-26T11:13:23.550Z,14.12
2019-02-26T11:15:53.955Z,14.25
2019-02-26T11:18:24.510Z,14.26
2019-02-26T11:20:55.962Z,14.25
2019-02-26T11:23:30.803Z,14.32
2019-02-26T11:25:56.530Z,14.41
2019-02-26T11:28:29.748Z,14.42
2019-02-26T11:30:57.306Z,14.47
2019-02-26T11:33:27.872Z,14.88
2019-02-26T11:35:59.544Z,15.26
2019-02-26T11:38:28.631Z,15.88
2019-02-26T11:40:58.239Z,15.79
2019-02-26T11:43:28.922Z,15.66
2019-02-26T11:45:59.654Z,15.78
2019-02-26T11:48:32.651Z,15.81
2019-02-26T11:51:01.555Z,15.80
2019-02-26T11:53:32.170Z,15.69
2019-02-26T11:56:02.102Z,15.71
2019-02-26T11:58:31.938Z,15.74
2019-02-26T12:01:03.800Z,15.77
2019-02-26T12:03:36.278Z,15.83
2019-02-26T12:06:06.903Z,16.17
2019-02-26T12:08:37.273Z,16.39
2019-02-26T12:11:11.255Z,16.60
2019-02-26T12:13:39.544Z,16.78
2019-02-26T12:16:10.579Z,16.82
2019-02-26T12:18:41.652Z,16.70
2019-02-26T12:21:12.856Z,16.52
2019-02-26T12:23:44.598Z,16.41
2019-02-26T12:26:13.762Z,16.31
2019-02-26T12:28:44.053Z,16.33
2019-02-26T12:31:13.693Z,16.30
2019-02-26T12:33:43.200Z,16.22
2019-02-26T12:36:13.187Z,16.23
2019-02-26T12:38:42.722Z,16.20
2019-02-26T12:41:15.593Z,16.27
2019-02-26T12:43:46.360Z,16.26
2019-02-26T12:46:14.683Z,16.25
2019-02-26T12:48:46.823Z,16.26
2019-02-26T12:51:15.431Z,16.31
2019-02-26T12:53:49.019Z,16.24
2019-02-26T12:56:16.158Z,16.30
2019-02-26T12:58:48.574Z,16.34
2019-02-26T13:01:16.907Z,16.42
2019-02-26T13:06:18.697Z,16.49
2019-02-26T13:08:50.418Z,16.60
2019-02-26T13:11:24.209Z,16.68
2019-02-26T13:13:53.428Z,16.68
2019-02-26T13:16:22.811Z,16.70
2019-02-26T13:18:56.671Z,16.77
2019-02-26T13:21:23.563Z,16.77
2019-02-26T13:23:58.755Z,16.86
2019-02-26T13:26:24.334Z,16.91
2019-02-26T13:28:56.066Z,16.95
2019-02-26T13:31:25.073Z,17.04
2019-02-26T13:33:54.599Z,17.05
2019-02-26T13:36:24.106Z,17.16
2019-02-26T13:38:53.592Z,16.91
2019-02-26T13:41:30.025Z,16.98
2019-02-26T13:43:54.341Z,17.08
2019-02-26T13:46:23.853Z,17.13
2019-02-26T13:48:53.365Z,17.18
2019-02-26T13:51:22.873Z,17.14
2019-02-26T13:53:53.254Z,17.14
2019-02-26T13:56:22.767Z,16.91
2019-02-26T13:58:52.291Z,17.13
2019-02-26T14:01:21.796Z,17.22
2019-02-26T14:03:51.312Z,17.31
2019-02-26T14:06:20.815Z,17.30
2019-02-26T14:08:50.328Z,17.35
2019-02-26T14:11:19.870Z,17.38
2019-02-26T14:13:49.535Z,17.38
2019-02-26T14:16:19.029Z,17.45
2019-02-26T14:18:48.553Z,17.37
2019-02-26T14:21:18.053Z,17.41
2019-02-26T14:23:47.650Z,17.43
2019-02-26T14:26:17.217Z,17.51
2019-02-26T14:28:46.824Z,17.56
2019-02-26T14:31:16.348Z,17.56
2019-02-26T14:33:45.878Z,17.59
2019-02-26T14:36:15.405Z,17.30
2019-02-26T14:38:44.957Z,17.61
2019-02-26T14:41:14.621Z,17.66
2019-02-26T14:43:44.336Z,17.71
2019-02-26T14:46:13.850Z,17.68
2019-02-26T14:48:43.605Z,17.64
2019-02-26T14:51:13.413Z,17.55
2019-02-26T14:53:43.207Z,17.67
2019-02-26T14:56:12.957Z,17.58
2019-02-26T14:58:42.566Z,17.62
2019-02-26T15:01:12.094Z,17.65
2019-02-26T15:03:41.617Z,17.66
2019-02-26T15:06:11.326Z,17.72
2019-02-26T15:08:41.394Z,17.69
2019-02-26T15:11:11.187Z,17.68
2019-02-26T15:13:40.753Z,17.72
2019-02-26T15:16:10.277Z,17.72
2019-02-26T15:18:39.965Z,17.70
2019-02-26T15:21:09.460Z,17.66
2019-02-26T15:23:39.199Z,17.67
2019-02-26T15:26:08.689Z,17.72
2019-02-26T15:28:38.209Z,17.64
2019-02-26T15:31:07.722Z,17.58
2019-02-26T15:33:37.281Z,17.58
2019-02-26T15:36:06.778Z,17.59
2019-02-26T15:38:36.309Z,17.60
2019-02-26T15:41:06.075Z,17.55
2019-02-26T15:43:35.628Z,17.52
2019-02-26T15:46:05.130Z,17.52
2019-02-26T15:48:36.451Z,17.43
2019-02-26T15:51:14.171Z,17.45
2019-02-26T15:53:37.128Z,17.38
2019-02-26T15:56:06.653Z,17.36
2019-02-26T15:58:36.172Z,17.28
2019-02-26T16:01:09.630Z,17.32
2019-02-26T16:03:39.138Z,17.41
2019-02-26T16:06:08.661Z,17.39
2019-02-26T16:08:38.656Z,17.32
2019-02-26T16:11:08.181Z,17.28
2019-02-26T16:13:37.685Z,17.23
2019-02-26T16:16:07.206Z,17.19
2019-02-26T16:18:37.548Z,17.13
2019-02-26T16:21:07.053Z,17.11
2019-02-26T16:23:36.582Z,17.05
2019-02-26T16:26:08.049Z,16.96
2019-02-26T16:28:37.302Z,16.87
2019-02-26T16:31:07.793Z,16.77
2019-02-26T16:33:37.317Z,16.68
2019-02-26T16:36:07.864Z,16.59
2019-02-26T16:38:37.390Z,16.56
2019-02-26T16:41:06.973Z,16.58
2019-02-26T16:43:36.473Z,16.73
2019-02-26T16:46:08.276Z,16.63
2019-02-26T16:48:37.333Z,16.53
2019-02-26T16:51:06.872Z,16.45
2019-02-26T16:53:36.421Z,16.33
2019-02-26T16:56:07.814Z,16.19
2019-02-26T16:58:37.193Z,16.01
2019-02-26T17:01:07.605Z,15.81
2019-02-26T17:03:37.141Z,15.68
2019-02-26T17:06:06.673Z,15.59
2019-02-26T17:08:37.191Z,15.47
2019-02-26T17:11:06.916Z,15.43
2019-02-26T17:13:36.598Z,15.32
2019-02-26T17:16:06.208Z,15.17
2019-02-26T17:18:35.726Z,15.08
2019-02-26T17:21:05.249Z,14.97
2019-02-26T17:23:34.755Z,14.91
2019-02-26T17:26:04.576Z,14.84
2019-02-26T17:28:34.120Z,14.83
2019-02-26T17:31:03.755Z,14.79
2019-02-26T17:33:33.255Z,14.71
2019-02-26T17:36:02.789Z,14.71
2019-02-26T17:38:32.397Z,14.69
2019-02-26T17:41:01.967Z,14.63
2019-02-26T17:43:31.489Z,14.46
2019-02-26T17:46:01.026Z,14.31
2019-02-26T17:48:31.235Z,14.11
2019-02-26T17:51:01.252Z,14.01
2019-02-26T17:53:30.766Z,13.85
2019-02-26T17:56:00.339Z,13.73
2019-02-26T17:58:29.832Z,13.61
2019-02-26T18:00:59.355Z,13.52
2019-02-26T18:03:28.915Z,13.41
2019-02-26T18:05:58.428Z,13.33
2019-02-26T18:08:28.094Z,13.21
2019-02-26T18:10:57.621Z,13.15
2019-02-26T18:13:27.145Z,13.07
2019-02-26T18:15:57.294Z,13.02
2019-02-26T18:18:27.949Z,12.93
2019-02-26T18:20:57.481Z,12.89
2019-02-26T18:23:27.013Z,12.83
2019-02-26T18:25:56.956Z,12.78
2019-02-26T18:28:26.469Z,12.69
2019-02-26T18:30:55.988Z,12.68
2019-02-26T18:33:25.522Z,12.59
2019-02-26T18:35:55.024Z,12.53
2019-02-26T18:38:24.557Z,12.39
2019-02-26T18:40:54.078Z,12.30
2019-02-26T18:43:23.604Z,12.20
2019-02-26T18:45:53.123Z,12.13
2019-02-26T18:48:22.637Z,12.06
2019-02-26T18:50:52.153Z,12.03
2019-02-26T18:53:22.031Z,12.00
2019-02-26T18:55:51.544Z,11.00
2019-02-26T18:58:21.100Z,11.93
2019-02-26T19:00:50.597Z,11.88
2019-02-26T19:03:20.109Z,11.81
2019-02-26T19:05:53.957Z,11.78
2019-02-26T19:08:20.872Z,11.75
2019-02-26T19:10:50.933Z,11.74
2019-02-26T19:13:21.591Z,11.69
2019-02-26T19:15:51.190Z,11.69
2019-02-26T19:18:20.777Z,11.63
2019-02-26T19:20:50.333Z,11.55
2019-02-26T19:23:20.844Z,11.48
2019-02-26T19:25:50.367Z,11.39
2019-02-26T19:28:20.177Z,11.32
2019-02-26T19:30:49.742Z,11.25
2019-02-26T19:33:21.681Z,11.22
2019-02-26T19:35:51.473Z,11.18
2019-02-26T19:38:21.968Z,11.14
2019-02-26T19:40:52.485Z,11.12
2019-02-26T19:43:23.818Z,10.98
2019-02-26T19:45:53.210Z,11.01
2019-02-26T19:48:22.732Z,10.92
2019-02-26T19:50:52.260Z,10.81
2019-02-26T19:53:21.790Z,11.36
2019-02-26T19:55:53.093Z,12.34
2019-02-26T19:58:22.676Z,12.06
2019-02-26T20:00:53.000Z,11.82
2019-02-26T20:03:23.797Z,11.68
2019-02-26T20:05:53.322Z,11.61
2019-02-26T20:08:22.831Z,11.54
2019-02-26T20:10:54.079Z,11.46
2019-02-26T20:13:23.730Z,11.37
2019-02-26T20:15:54.841Z,11.32
2019-02-26T20:18:26.167Z,11.29
2019-02-26T20:20:55.700Z,11.22
2019-02-26T20:23:25.235Z,11.18
2019-02-26T20:25:54.793Z,11.11
2019-02-26T20:28:24.360Z,11.04
2019-02-26T20:30:53.911Z,11.04
2019-02-26T20:33:23.449Z,10.97
2019-02-26T20:35:52.973Z,10.91
2019-02-26T20:38:22.532Z,10.85
2019-02-26T20:40:52.119Z,10.80
2019-02-26T20:43:21.639Z,10.75
2019-02-26T20:45:51.789Z,10.69
2019-02-26T20:48:21.483Z,10.64
2019-02-26T20:50:53.553Z,10.60
2019-02-26T20:53:22.249Z,10.54
2019-02-26T20:55:52.790Z,10.49
2019-02-26T20:58:22.980Z,10.43
2019-02-26T21:00:52.492Z,10.40
2019-02-26T21:03:22.994Z,10.31
2019-02-26T21:05:52.519Z,10.26
2019-02-26T21:08:22.046Z,10.21
2019-02-26T21:10:51.557Z,10.18
2019-02-26T21:13:21.087Z,10.16
2019-02-26T21:15:50.616Z,10.12
2019-02-26T21:18:20.136Z,10.09
2019-02-26T21:20:49.644Z,10.02
2019-02-26T21:23:19.174Z,9.96
2019-02-26T21:25:48.667Z,9.93
2019-02-26T21:28:18.268Z,9.90
2019-02-26T21:30:47.779Z,9.82
2019-02-26T21:33:17.285Z,9.75
2019-02-26T21:35:46.877Z,9.74
2019-02-26T21:38:16.387Z,9.74
2019-02-26T21:40:48.669Z,9.70
2019-02-26T21:43:17.096Z,9.67
2019-02-26T21:45:49.109Z,9.65
2019-02-26T21:48:17.782Z,9.61
2019-02-26T21:50:47.289Z,9.57
2019-02-26T21:53:16.791Z,9.52
2019-02-26T21:55:46.281Z,9.49
2019-02-26T21:58:15.797Z,9.44
2019-02-26T22:00:45.296Z,9.40
2019-02-26T22:03:14.797Z,9.37
2019-02-26T22:05:44.278Z,9.33
2019-02-26T22:08:13.785Z,9.31
2019-02-26T22:10:43.501Z,9.26
2019-02-26T22:13:12.957Z,9.23
2019-02-26T22:15:44.679Z,9.18
2019-02-26T22:18:13.659Z,9.15
2019-02-26T22:20:43.189Z,9.13
2019-02-26T22:23:14.836Z,9.12
2019-02-26T22:25:43.916Z,9.05
2019-02-26T22:28:13.422Z,9.04
2019-02-26T22:30:42.917Z,9.02
2019-02-26T22:33:12.416Z,9.02
2019-02-26T22:35:41.929Z,9.07
2019-02-26T22:38:15.065Z,9.04
2019-02-26T22:40:43.281Z,8.96
2019-02-26T22:43:13.747Z,8.82
2019-02-26T22:45:43.862Z,8.86
2019-02-26T22:48:14.131Z,8.80
2019-02-26T22:50:43.639Z,8.71
2019-02-26T22:53:13.148Z,8.61
2019-02-26T22:55:42.653Z,8.59
2019-02-26T22:58:12.139Z,8.58
2019-02-26T23:01:03.013Z,8.55
2019-02-26T23:03:34.229Z,8.54
2019-02-26T23:06:03.933Z,8.47
2019-02-26T23:08:33.536Z,8.42
2019-02-26T23:11:03.105Z,8.38
2019-02-26T23:13:32.869Z,8.41
2019-02-26T23:16:02.580Z,8.36
2019-02-26T23:18:32.362Z,8.35
2019-02-26T23:21:01.972Z,8.31
2019-02-26T23:23:32.007Z,8.31
2019-02-26T23:26:01.515Z,8.26
2019-02-26T23:28:31.176Z,8.26
2019-02-26T23:31:00.776Z,8.23
2019-02-26T23:33:30.376Z,8.18
2019-02-26T23:35:59.885Z,8.19
2019-02-26T23:38:29.374Z,8.11
2019-02-26T23:41:00.354Z,8.10
2019-02-26T23:43:30.238Z,8.06
2019-02-26T23:45:59.843Z,8.12
2019-02-26T23:48:29.514Z,8.07
2019-02-26T23:50:59.045Z,8.04
2019-02-26T23:53:28.575Z,8.02
2019-02-26T23:55:58.097Z,7.98
2019-02-26T23:58:30.720Z,7.94
